Terminal Aerodrome Forecast
Issued by NWS Shreveport, LA

Home | Current Version | Previous Version | Text Only | Print | Product List | Glossary On
Versions: 1 2 3 4 5 6 7 8 9 10 11 12 13 14 15 16 17
000
FTUS44 KSHV 210400 AAB
TAFLFK
TAF AMD
KLFK 210444Z 2105/2124 04003KT 6SM BR SCT018
     FM210800 00000KT 4SM BR SCT002
      TEMPO 2109/2113 1SM BR BKN002
     FM211300 VRB03KT 1SM BR OVC002
     FM211600 14005KT 6SM BR SCT008 OVC012
     FM211800 15005KT P6SM BKN017=

USA.gov is the U.S. government's official web portal to all federal, state and local government web resources and services.